createdAt,value
2022-09-17T00:02:21.220Z,57.11
2022-09-17T00:05:50.678Z,57.38
2022-09-17T00:09:18.404Z,57.60
2022-09-17T00:12:47.559Z,57.66
2022-09-17T00:16:22.518Z,57.76
2022-09-17T00:19:50.163Z,57.80
2022-09-17T00:23:17.809Z,57.78
2022-09-17T00:26:45.937Z,57.87
2022-09-17T00:30:17.320Z,57.93
2022-09-17T00:33:44.089Z,58.01
2022-09-17T00:37:12.408Z,58.11
2022-09-17T00:40:42.674Z,58.21
2022-09-17T00:44:39.687Z,58.24
2022-09-17T00:48:09.604Z,58.47
2022-09-17T00:51:41.782Z,58.56
2022-09-17T00:55:18.193Z,58.65
2022-09-17T00:58:45.204Z,58.72
2022-09-17T01:02:12.817Z,58.80
2022-09-17T01:05:47.497Z,58.96
2022-09-17T01:09:33.109Z,59.08
2022-09-17T01:13:18.375Z,59.20
2022-09-17T01:17:02.319Z,59.15
2022-09-17T01:21:04.460Z,59.36
2022-09-17T01:24:50.273Z,59.47
2022-09-17T01:28:40.822Z,59.52
2022-09-17T01:32:14.551Z,59.55
2022-09-17T01:35:52.708Z,59.48
2022-09-17T01:39:30.926Z,59.55
2022-09-17T01:43:05.938Z,59.65
2022-09-17T01:46:44.238Z,59.85
2022-09-17T01:50:47.171Z,59.77
2022-09-17T01:54:42.676Z,59.90
2022-09-17T01:58:39.984Z,59.91
2022-09-17T02:02:49.624Z,60.08
2022-09-17T02:07:14.450Z,60.03
2022-09-17T02:11:06.245Z,60.38
2022-09-17T02:15:03.518Z,60.14
2022-09-17T02:18:36.038Z,60.50
2022-09-17T02:22:11.041Z,60.43
2022-09-17T02:25:44.982Z,60.60
2022-09-17T02:29:21.162Z,60.75
2022-09-17T02:32:48.173Z,60.54
2022-09-17T02:36:15.756Z,60.67
2022-09-17T02:39:43.994Z,60.60
2022-09-17T02:43:16.301Z,60.84
2022-09-17T02:46:59.009Z,60.90
2022-09-17T02:50:37.507Z,61.04
2022-09-17T02:54:14.235Z,61.08
2022-09-17T02:57:49.443Z,61.03
2022-09-17T03:01:32.698Z,61.13
2022-09-17T03:05:00.618Z,61.03
2022-09-17T03:08:44.438Z,61.48
2022-09-17T03:12:11.890Z,61.02
2022-09-17T03:15:38.857Z,61.65
2022-09-17T03:19:06.305Z,61.45
2022-09-17T03:22:33.334Z,61.58
2022-09-17T03:26:00.162Z,61.75
2022-09-17T03:29:27.040Z,61.78
2022-09-17T03:32:53.915Z,61.95
2022-09-17T03:36:24.919Z,61.76
2022-09-17T03:39:51.817Z,61.64
2022-09-17T03:43:20.571Z,61.71
2022-09-17T03:46:47.992Z,61.51
2022-09-17T03:50:15.131Z,61.64
2022-09-17T03:53:42.594Z,61.73
2022-09-17T03:57:09.891Z,61.93
2022-09-17T04:00:38.296Z,61.81
2022-09-17T04:04:05.810Z,61.81
2022-09-17T04:07:32.829Z,62.00
2022-09-17T04:10:59.365Z,62.08
2022-09-17T04:14:27.343Z,61.98
2022-09-17T04:17:57.917Z,62.06
2022-09-17T04:21:24.943Z,62.06
2022-09-17T04:24:51.675Z,62.27
2022-09-17T04:28:19.052Z,62.57
2022-09-17T04:31:46.326Z,62.46
2022-09-17T04:35:13.494Z,62.28
2022-09-17T04:38:40.660Z,62.76
2022-09-17T04:42:07.675Z,62.69
2022-09-17T04:45:34.869Z,62.67
2022-09-17T04:49:01.760Z,62.62
2022-09-17T04:52:30.993Z,62.69
2022-09-17T04:55:57.820Z,62.70
2022-09-17T04:59:24.898Z,62.61
2022-09-17T05:02:53.775Z,62.84
2022-09-17T05:06:20.571Z,62.88
2022-09-17T05:09:47.815Z,63.03
2022-09-17T05:13:14.280Z,63.10
2022-09-17T05:16:41.096Z,63.34
2022-09-17T05:20:09.865Z,63.14
2022-09-17T05:23:36.953Z,63.09
2022-09-17T05:27:03.710Z,63.17
2022-09-17T05:30:31.637Z,63.38
2022-09-17T05:34:00.936Z,63.45
2022-09-17T05:37:27.724Z,63.56
2022-09-17T05:40:54.358Z,63.63
2022-09-17T05:44:21.445Z,63.78
2022-09-17T05:47:48.542Z,63.83
2022-09-17T05:51:15.913Z,64.08
2022-09-17T05:54:45.729Z,64.15
2022-09-17T05:58:19.621Z,63.99
2022-09-17T06:01:51.199Z,64.00
2022-09-17T06:05:18.659Z,63.98
2022-09-17T06:08:45.933Z,64.02
2022-09-17T06:12:13.129Z,63.92
2022-09-17T06:15:40.087Z,64.03
2022-09-17T06:19:06.916Z,64.22
2022-09-17T06:22:33.737Z,64.21
2022-09-17T06:26:01.477Z,64.34
2022-09-17T06:29:28.086Z,64.40
2022-09-17T06:32:55.318Z,64.49
2022-09-17T06:36:22.694Z,64.50
2022-09-17T06:39:49.197Z,64.71
2022-09-17T06:43:17.707Z,64.67
2022-09-17T06:46:44.492Z,64.63
2022-09-17T06:50:13.682Z,64.73
2022-09-17T06:53:43.275Z,64.70
2022-09-17T06:57:10.757Z,64.71
2022-09-17T07:00:37.844Z,64.86
2022-09-17T07:04:10.206Z,64.96
2022-09-17T07:07:39.962Z,65.02
2022-09-17T07:11:07.103Z,65.04
2022-09-17T07:14:34.162Z,65.18
2022-09-17T07:18:02.854Z,65.28
2022-09-17T07:21:29.928Z,65.04
2022-09-17T07:24:56.863Z,65.25
2022-09-17T07:28:24.263Z,65.24
2022-09-17T07:31:51.507Z,65.37
2022-09-17T07:35:19.040Z,65.49
2022-09-17T07:38:46.198Z,65.43
2022-09-17T07:42:13.416Z,65.54
2022-09-17T07:45:40.217Z,65.31
2022-09-17T07:49:07.621Z,65.32
2022-09-17T07:52:34.172Z,65.46
2022-09-17T07:56:02.805Z,65.49
2022-09-17T07:59:30.373Z,65.63
2022-09-17T08:02:58.327Z,65.59
2022-09-17T08:06:28.478Z,65.67
2022-09-17T08:09:56.505Z,65.71
2022-09-17T08:13:23.311Z,65.76
2022-09-17T08:16:50.658Z,65.89
2022-09-17T08:20:19.367Z,65.83
2022-09-17T08:23:46.926Z,65.74
2022-09-17T08:27:14.086Z,65.90
2022-09-17T08:30:40.934Z,65.99
2022-09-17T08:34:12.749Z,65.78
2022-09-17T08:37:39.633Z,66.13
2022-09-17T08:41:22.521Z,65.61
2022-09-17T08:44:52.078Z,66.06
2022-09-17T08:48:20.483Z,65.75
2022-09-17T08:52:00.046Z,65.97
2022-09-17T08:55:35.384Z,65.69
2022-09-17T08:59:13.329Z,65.93
2022-09-17T09:03:00.950Z,65.78
2022-09-17T09:06:37.905Z,65.73
2022-09-17T09:10:14.283Z,65.83
2022-09-17T09:13:47.895Z,65.70
2022-09-17T09:17:17.349Z,65.68
2022-09-17T09:20:49.747Z,65.72
2022-09-17T09:24:26.358Z,65.65
2022-09-17T09:28:19.271Z,65.78
2022-09-17T09:31:58.221Z,65.67
2022-09-17T09:35:28.779Z,65.79
2022-09-17T09:39:02.025Z,65.54
2022-09-17T09:42:34.073Z,65.33
2022-09-17T09:46:21.574Z,65.34
2022-09-17T09:50:10.425Z,65.35
2022-09-17T09:53:47.701Z,65.32
2022-09-17T09:57:18.053Z,65.31
2022-09-17T10:00:46.082Z,65.19
2022-09-17T10:04:20.554Z,65.10
2022-09-17T10:07:49.096Z,64.89
2022-09-17T10:11:27.008Z,64.88
2022-09-17T10:14:54.825Z,64.86
2022-09-17T10:18:26.149Z,64.80
2022-09-17T10:21:53.859Z,64.78
2022-09-17T10:25:30.153Z,64.68
2022-09-17T10:28:59.801Z,64.74
2022-09-17T10:32:27.259Z,64.75
2022-09-17T10:36:04.702Z,64.66
2022-09-17T10:39:44.556Z,64.61
2022-09-17T10:43:25.263Z,64.56
2022-09-17T10:46:52.543Z,64.47
2022-09-17T10:50:23.070Z,64.47
2022-09-17T10:54:24.990Z,64.39
2022-09-17T10:58:15.101Z,64.32
2022-09-17T11:02:07.362Z,64.01
2022-09-17T11:05:53.859Z,63.83
2022-09-17T11:09:31.608Z,63.74
2022-09-17T11:13:18.700Z,63.53
2022-09-17T11:16:57.721Z,63.36
2022-09-17T11:20:44.584Z,63.24
2022-09-17T11:24:38.730Z,63.22
2022-09-17T11:28:11.542Z,63.07
2022-09-17T11:31:48.715Z,62.91
2022-09-17T11:35:20.987Z,62.69
2022-09-17T11:38:51.726Z,62.44
2022-09-17T11:42:23.627Z,62.36
2022-09-17T11:45:58.225Z,62.37
2022-09-17T11:49:35.615Z,62.53
2022-09-17T11:53:12.311Z,62.34
2022-09-17T11:56:46.056Z,62.18
2022-09-17T12:00:20.724Z,62.20
2022-09-17T12:03:54.470Z,61.98
2022-09-17T12:07:36.607Z,61.69
2022-09-17T12:11:12.764Z,61.49
2022-09-17T12:15:05.493Z,61.39
2022-09-17T12:18:42.214Z,60.92
2022-09-17T12:22:15.439Z,61.09
2022-09-17T12:25:48.273Z,61.01
2022-09-17T12:33:54.759Z,58.90
2022-09-17T12:37:33.424Z,58.34
2022-09-17T12:41:08.568Z,58.24
2022-09-17T12:45:09.181Z,57.55
2022-09-17T12:48:57.712Z,57.37
2022-09-17T12:52:39.489Z,57.50
2022-09-17T12:56:14.965Z,57.67
2022-09-17T12:59:49.899Z,57.39
2022-09-17T13:03:26.680Z,56.60
2022-09-17T13:07:31.149Z,56.38
2022-09-17T13:11:27.805Z,56.44
2022-09-17T13:15:23.016Z,56.35
2022-09-17T13:19:17.290Z,56.35
2022-09-17T13:22:50.978Z,56.42
2022-09-17T13:26:21.928Z,56.37
2022-09-17T13:30:06.785Z,56.31
2022-09-17T13:33:54.571Z,56.19
2022-09-17T13:37:24.723Z,56.28
2022-09-17T13:40:53.297Z,56.71
2022-09-17T13:44:25.402Z,57.18
2022-09-17T13:47:56.379Z,57.32
2022-09-17T13:51:53.532Z,57.79
2022-09-17T13:55:40.178Z,58.17
2022-09-17T13:59:12.627Z,58.50
2022-09-17T14:02:41.088Z,58.56
2022-09-17T14:06:38.394Z,58.79
2022-09-17T14:10:42.527Z,58.94
2022-09-17T14:14:50.299Z,59.00
2022-09-17T14:18:44.013Z,59.13
2022-09-17T14:22:17.025Z,58.87
2022-09-17T14:25:51.107Z,58.76
2022-09-17T14:29:37.025Z,58.64
2022-09-17T14:33:15.125Z,58.37
2022-09-17T14:36:44.525Z,57.99
2022-09-17T14:40:18.464Z,57.70
2022-09-17T14:43:51.592Z,57.63
2022-09-17T14:47:22.193Z,57.66
2022-09-17T14:50:50.354Z,57.65
2022-09-17T14:54:33.653Z,57.55
2022-09-17T14:58:06.267Z,57.15
2022-09-17T15:01:35.365Z,57.13
2022-09-17T15:05:04.582Z,57.26
2022-09-17T15:08:33.247Z,57.28
2022-09-17T15:12:06.361Z,57.35
2022-09-17T15:15:34.745Z,57.30
2022-09-17T15:19:03.847Z,57.24
2022-09-17T15:22:33.837Z,57.32
2022-09-17T15:26:07.507Z,57.33
2022-09-17T15:29:38.421Z,57.43
2022-09-17T15:33:05.388Z,57.58
2022-09-17T15:36:35.055Z,57.51
2022-09-17T15:40:13.509Z,57.55
2022-09-17T15:43:44.317Z,57.71
2022-09-17T15:47:50.995Z,57.69
2022-09-17T15:51:27.824Z,57.83
2022-09-17T15:54:56.200Z,58.00
2022-09-17T15:58:28.799Z,58.07
2022-09-17T16:01:58.353Z,58.15
2022-09-17T16:05:55.685Z,58.28
2022-09-17T16:09:50.306Z,58.47
2022-09-17T16:13:17.080Z,58.65
2022-09-17T16:16:44.685Z,58.69
2022-09-17T16:20:17.918Z,58.85
2022-09-17T16:23:46.504Z,58.91
2022-09-17T16:27:21.143Z,59.00
2022-09-17T16:30:50.495Z,59.24
2022-09-17T16:34:20.028Z,59.33
2022-09-17T16:37:49.354Z,59.38
2022-09-17T16:41:16.304Z,59.38
2022-09-17T16:44:44.055Z,59.50
2022-09-17T16:48:11.236Z,59.66
2022-09-17T16:51:38.715Z,59.86
2022-09-17T16:55:07.063Z,59.96
2022-09-17T16:58:34.778Z,60.04
2022-09-17T17:02:02.919Z,60.12
2022-09-17T17:05:30.698Z,60.33
2022-09-17T17:09:01.033Z,60.50
2022-09-17T17:12:28.320Z,60.51
2022-09-17T17:15:57.854Z,60.75
2022-09-17T17:19:25.571Z,60.83
2022-09-17T17:22:55.303Z,60.77
2022-09-17T17:26:22.418Z,60.99
2022-09-17T17:29:50.345Z,61.13
2022-09-17T17:33:18.159Z,61.17
2022-09-17T17:36:46.410Z,61.33
2022-09-17T17:40:15.123Z,61.44
2022-09-17T17:43:42.554Z,61.30
2022-09-17T17:47:10.059Z,61.56
2022-09-17T17:50:37.356Z,61.58
2022-09-17T17:54:05.239Z,61.71
2022-09-17T17:57:32.562Z,62.00
2022-09-17T18:01:00.006Z,61.91
2022-09-17T18:04:28.147Z,62.13
2022-09-17T18:07:56.937Z,62.37
2022-09-17T18:11:24.805Z,62.45
2022-09-17T18:14:58.228Z,62.39
2022-09-17T18:18:26.376Z,62.55
2022-09-17T18:21:55.762Z,62.66
2022-09-17T18:25:23.130Z,62.92
2022-09-17T18:28:50.282Z,62.97
2022-09-17T18:32:18.817Z,62.88
2022-09-17T18:35:46.035Z,62.97
2022-09-17T18:39:53.256Z,62.93
2022-09-17T18:43:03.634Z,63.20
2022-09-17T18:46:32.147Z,63.08
2022-09-17T18:49:58.771Z,63.30
2022-09-17T18:53:25.880Z,63.24
2022-09-17T18:56:52.758Z,63.37
2022-09-17T19:00:20.795Z,63.36
2022-09-17T19:03:50.842Z,63.67
2022-09-17T19:07:20.806Z,63.53
2022-09-17T19:10:57.029Z,63.58
2022-09-17T19:14:25.900Z,63.77
2022-09-17T19:17:54.906Z,63.86
2022-09-17T19:21:23.596Z,63.88
2022-09-17T19:24:51.650Z,64.01
2022-09-17T19:28:20.772Z,64.18
2022-09-17T19:31:48.146Z,64.17
2022-09-17T19:35:23.422Z,64.20
2022-09-17T19:38:53.029Z,64.15
2022-09-17T19:42:33.250Z,64.32
2022-09-17T19:46:06.975Z,64.48
2022-09-17T19:49:36.622Z,64.51
2022-09-17T19:53:08.110Z,64.53
2022-09-17T19:56:43.590Z,64.42
2022-09-17T20:00:16.528Z,64.68
2022-09-17T20:03:45.269Z,64.72
2022-09-17T20:07:14.189Z,64.82
2022-09-17T20:10:42.588Z,65.01
2022-09-17T20:14:10.358Z,65.13
2022-09-17T20:17:39.519Z,65.13
2022-09-17T20:21:12.984Z,65.34
2022-09-17T20:24:47.653Z,65.21
2022-09-17T20:28:17.494Z,65.27
2022-09-17T20:31:47.480Z,65.53
2022-09-17T20:35:14.382Z,65.41
2022-09-17T20:39:11.546Z,65.65
2022-09-17T20:42:30.519Z,65.57
2022-09-17T20:45:59.439Z,65.38
2022-09-17T20:49:29.855Z,65.45
2022-09-17T20:53:01.113Z,65.39
2022-09-17T20:56:34.679Z,65.40
2022-09-17T21:00:18.353Z,65.56
2022-09-17T21:03:50.964Z,65.58
2022-09-17T21:07:19.778Z,65.71
2022-09-17T21:10:49.441Z,65.86
2022-09-17T21:14:19.679Z,65.79
2022-09-17T21:17:48.583Z,65.89
2022-09-17T21:21:20.038Z,65.97
2022-09-17T21:24:50.384Z,66.07
2022-09-17T21:28:26.495Z,66.22
2022-09-17T21:31:54.593Z,66.10
2022-09-17T21:35:30.364Z,66.33
2022-09-17T21:39:00.878Z,66.36
2022-09-17T21:42:28.172Z,66.36
2022-09-17T21:46:12.573Z,66.34
2022-09-17T21:49:37.650Z,66.21
2022-09-17T21:53:04.658Z,66.43
2022-09-17T21:56:35.564Z,66.40
2022-09-17T22:00:03.768Z,66.59
2022-09-17T22:03:32.168Z,66.48
2022-09-17T22:07:01.155Z,66.51
2022-09-17T22:10:29.538Z,66.67
2022-09-17T22:13:59.100Z,66.86
2022-09-17T22:17:26.322Z,66.86
2022-09-17T22:20:55.897Z,67.02
2022-09-17T22:24:24.023Z,67.13
2022-09-17T22:28:16.776Z,66.91
2022-09-17T22:31:41.967Z,66.96
2022-09-17T22:35:11.443Z,67.19
2022-09-17T22:38:40.297Z,67.15
2022-09-17T22:42:08.578Z,67.26
2022-09-17T22:45:40.977Z,67.23
2022-09-17T22:49:08.981Z,67.18
2022-09-17T22:52:35.943Z,67.33
2022-09-17T22:56:03.688Z,67.20
2022-09-17T22:59:30.510Z,66.99
2022-09-17T23:02:58.725Z,67.05
2022-09-17T23:06:29.524Z,67.19
2022-09-17T23:09:57.046Z,67.10
2022-09-17T23:13:27.629Z,66.81
2022-09-17T23:16:54.725Z,67.23
2022-09-17T23:20:22.156Z,67.22
2022-09-17T23:23:53.766Z,67.36
2022-09-17T23:27:20.887Z,67.17
2022-09-17T23:30:48.364Z,67.49
2022-09-17T23:34:16.095Z,67.56
2022-09-17T23:37:45.050Z,67.36
2022-09-17T23:41:14.982Z,67.33
2022-09-17T23:44:42.068Z,67.69
2022-09-17T23:48:09.054Z,67.72
2022-09-17T23:51:38.138Z,67.71
2022-09-17T23:55:04.931Z,67.72
2022-09-17T23:58:34.613Z,67.51
